sensor_id;sensor_type;location;lat;lon;timestamp;P1;durP1;ratioP1;P2;durP2;ratioP2
5696;SDS011;2873;50.966;7.210;2023-03-01T00:02:07;9.70;;;6.93;;
5696;SDS011;2873;50.966;7.210;2023-03-01T00:04:33;9.53;;;7.20;;
5696;SDS011;2873;50.966;7.210;2023-03-01T00:07:00;9.07;;;7.05;;
5696;SDS011;2873;50.966;7.210;2023-03-01T00:09:26;16.80;;;7.30;;
5696;SDS011;2873;50.966;7.210;2023-03-01T00:11:51;10.40;;;7.47;;
5696;SDS011;2873;50.966;7.210;2023-03-01T00:14:17;9.20;;;6.80;;
5696;SDS011;2873;50.966;7.210;2023-03-01T00:16:43;11.40;;;7.00;;
5696;SDS011;2873;50.966;7.210;2023-03-01T00:19:11;12.05;;;7.13;;
5696;SDS011;2873;50.966;7.210;2023-03-01T00:21:38;10.77;;;7.60;;
5696;SDS011;2873;50.966;7.210;2023-03-01T00:24:03;9.30;;;6.33;;
5696;SDS011;2873;50.966;7.210;2023-03-01T00:26:29;8.40;;;7.25;;
5696;SDS011;2873;50.966;7.210;2023-03-01T00:28:56;9.20;;;6.80;;
5696;SDS011;2873;50.966;7.210;2023-03-01T00:31:23;10.47;;;7.90;;
5696;SDS011;2873;50.966;7.210;2023-03-01T00:33:54;10.90;;;7.07;;
5696;SDS011;2873;50.966;7.210;2023-03-01T00:36:21;9.43;;;7.57;;
5696;SDS011;2873;50.966;7.210;2023-03-01T00:38:49;12.45;;;7.60;;
5696;SDS011;2873;50.966;7.210;2023-03-01T00:41:15;11.00;;;7.10;;
5696;SDS011;2873;50.966;7.210;2023-03-01T00:43:42;9.18;;;6.57;;
5696;SDS011;2873;50.966;7.210;2023-03-01T00:46:10;10.68;;;7.45;;
5696;SDS011;2873;50.966;7.210;2023-03-01T00:48:39;9.73;;;7.32;;
5696;SDS011;2873;50.966;7.210;2023-03-01T00:53:34;11.38;;;7.28;;
5696;SDS011;2873;50.966;7.210;2023-03-01T00:56:00;10.20;;;7.17;;
5696;SDS011;2873;50.966;7.210;2023-03-01T00:58:26;12.73;;;7.30;;
5696;SDS011;2873;50.966;7.210;2023-03-01T01:00:52;11.68;;;7.40;;
5696;SDS011;2873;50.966;7.210;2023-03-01T01:03:18;11.73;;;7.70;;
5696;SDS011;2873;50.966;7.210;2023-03-01T01:05:44;9.70;;;7.00;;
5696;SDS011;2873;50.966;7.210;2023-03-01T01:08:10;12.02;;;7.70;;
5696;SDS011;2873;50.966;7.210;2023-03-01T01:10:35;8.77;;;6.97;;
5696;SDS011;2873;50.966;7.210;2023-03-01T01:13:01;10.90;;;7.60;;
5696;SDS011;2873;50.966;7.210;2023-03-01T01:15:26;9.90;;;7.10;;
5696;SDS011;2873;50.966;7.210;2023-03-01T01:17:52;10.23;;;7.40;;
5696;SDS011;2873;50.966;7.210;2023-03-01T01:20:18;9.77;;;7.40;;
5696;SDS011;2873;50.966;7.210;2023-03-01T01:22:43;10.30;;;7.17;;
5696;SDS011;2873;50.966;7.210;2023-03-01T01:25:09;10.93;;;7.70;;
5696;SDS011;2873;50.966;7.210;2023-03-01T01:27:35;8.30;;;6.50;;
5696;SDS011;2873;50.966;7.210;2023-03-01T01:30:01;10.77;;;7.70;;
5696;SDS011;2873;50.966;7.210;2023-03-01T01:32:26;9.37;;;7.30;;
5696;SDS011;2873;50.966;7.210;2023-03-01T01:34:53;10.57;;;7.00;;
5696;SDS011;2873;50.966;7.210;2023-03-01T01:37:18;10.17;;;7.37;;
5696;SDS011;2873;50.966;7.210;2023-03-01T01:39:44;12.55;;;8.10;;
5696;SDS011;2873;50.966;7.210;2023-03-01T01:42:17;10.67;;;7.00;;
5696;SDS011;2873;50.966;7.210;2023-03-01T01:44:45;9.70;;;7.03;;
5696;SDS011;2873;50.966;7.210;2023-03-01T01:47:16;13.00;;;7.20;;
5696;SDS011;2873;50.966;7.210;2023-03-01T01:49:52;9.13;;;7.00;;
5696;SDS011;2873;50.966;7.210;2023-03-01T01:52:21;9.73;;;6.55;;
5696;SDS011;2873;50.966;7.210;2023-03-01T01:57:47;9.05;;;6.80;;
5696;SDS011;2873;50.966;7.210;2023-03-01T02:00:17;7.80;;;6.45;;
5696;SDS011;2873;50.966;7.210;2023-03-01T02:02:49;11.07;;;8.20;;
5696;SDS011;2873;50.966;7.210;2023-03-01T02:05:41;10.68;;;7.85;;
5696;SDS011;2873;50.966;7.210;2023-03-01T02:08:17;8.57;;;7.18;;
5696;SDS011;2873;50.966;7.210;2023-03-01T02:10:45;9.87;;;7.50;;
5696;SDS011;2873;50.966;7.210;2023-03-01T02:13:11;10.33;;;7.10;;
5696;SDS011;2873;50.966;7.210;2023-03-01T02:15:38;11.20;;;7.65;;
5696;SDS011;2873;50.966;7.210;2023-03-01T02:18:07;10.30;;;7.90;;
5696;SDS011;2873;50.966;7.210;2023-03-01T02:20:38;11.60;;;7.60;;
5696;SDS011;2873;50.966;7.210;2023-03-01T02:23:13;10.77;;;7.50;;
5696;SDS011;2873;50.966;7.210;2023-03-01T02:25:51;11.17;;;7.57;;
5696;SDS011;2873;50.966;7.210;2023-03-01T02:28:29;12.30;;;7.57;;
5696;SDS011;2873;50.966;7.210;2023-03-01T02:31:03;10.25;;;7.97;;
5696;SDS011;2873;50.966;7.210;2023-03-01T02:33:49;15.57;;;7.70;;
5696;SDS011;2873;50.966;7.210;2023-03-01T02:36:17;13.10;;;7.50;;
5696;SDS011;2873;50.966;7.210;2023-03-01T02:38:45;12.15;;;8.18;;
5696;SDS011;2873;50.966;7.210;2023-03-01T02:41:13;9.52;;;7.25;;
5696;SDS011;2873;50.966;7.210;2023-03-01T02:43:42;12.85;;;8.20;;
5696;SDS011;2873;50.966;7.210;2023-03-01T02:46:13;11.40;;;7.78;;
5696;SDS011;2873;50.966;7.210;2023-03-01T02:48:47;12.00;;;8.40;;
5696;SDS011;2873;50.966;7.210;2023-03-01T02:51:22;11.57;;;7.65;;
5696;SDS011;2873;50.966;7.210;2023-03-01T02:53:58;11.57;;;7.63;;
5696;SDS011;2873;50.966;7.210;2023-03-01T02:56:39;11.70;;;8.10;;
5696;SDS011;2873;50.966;7.210;2023-03-01T02:59:06;12.25;;;7.88;;
5696;SDS011;2873;50.966;7.210;2023-03-01T03:01:32;15.85;;;7.90;;
5696;SDS011;2873;50.966;7.210;2023-03-01T03:04:04;11.60;;;7.47;;
5696;SDS011;2873;50.966;7.210;2023-03-01T03:06:36;11.02;;;7.68;;
5696;SDS011;2873;50.966;7.210;2023-03-01T03:09:02;10.73;;;8.17;;
5696;SDS011;2873;50.966;7.210;2023-03-01T03:11:29;13.10;;;7.70;;
5696;SDS011;2873;50.966;7.210;2023-03-01T03:13:57;14.20;;;7.70;;
5696;SDS011;2873;50.966;7.210;2023-03-01T03:16:22;11.63;;;8.00;;
5696;SDS011;2873;50.966;7.210;2023-03-01T03:18:48;12.05;;;7.70;;
5696;SDS011;2873;50.966;7.210;2023-03-01T03:21:14;11.10;;;7.47;;
5696;SDS011;2873;50.966;7.210;2023-03-01T03:23:41;16.92;;;8.40;;
5696;SDS011;2873;50.966;7.210;2023-03-01T03:26:07;10.97;;;7.83;;
5696;SDS011;2873;50.966;7.210;2023-03-01T03:28:33;10.20;;;7.23;;
5696;SDS011;2873;50.966;7.210;2023-03-01T03:30:59;11.73;;;7.43;;
5696;SDS011;2873;50.966;7.210;2023-03-01T03:33:28;9.05;;;7.20;;
5696;SDS011;2873;50.966;7.210;2023-03-01T03:35:55;9.82;;;7.75;;
5696;SDS011;2873;50.966;7.210;2023-03-01T03:38:21;10.68;;;7.75;;
5696;SDS011;2873;50.966;7.210;2023-03-01T03:43:18;12.30;;;8.50;;
5696;SDS011;2873;50.966;7.210;2023-03-01T03:45:45;11.50;;;8.05;;
5696;SDS011;2873;50.966;7.210;2023-03-01T03:48:12;10.07;;;7.63;;
5696;SDS011;2873;50.966;7.210;2023-03-01T03:50:38;12.40;;;7.90;;
5696;SDS011;2873;50.966;7.210;2023-03-01T03:53:09;11.00;;;8.02;;
5696;SDS011;2873;50.966;7.210;2023-03-01T03:55:35;12.50;;;8.30;;
5696;SDS011;2873;50.966;7.210;2023-03-01T03:58:04;12.30;;;8.20;;
5696;SDS011;2873;50.966;7.210;2023-03-01T04:00:32;11.95;;;8.10;;
5696;SDS011;2873;50.966;7.210;2023-03-01T04:03:00;10.05;;;8.10;;
5696;SDS011;2873;50.966;7.210;2023-03-01T04:05:25;12.00;;;8.57;;
5696;SDS011;2873;50.966;7.210;2023-03-01T04:07:52;13.25;;;8.05;;
5696;SDS011;2873;50.966;7.210;2023-03-01T04:10:26;12.73;;;8.43;;
5696;SDS011;2873;50.966;7.210;2023-03-01T04:12:56;13.40;;;8.40;;
5696;SDS011;2873;50.966;7.210;2023-03-01T04:15:22;10.67;;;8.33;;
5696;SDS011;2873;50.966;7.210;2023-03-01T04:17:49;11.30;;;8.30;;
5696;SDS011;2873;50.966;7.210;2023-03-01T04:20:21;12.57;;;8.80;;
5696;SDS011;2873;50.966;7.210;2023-03-01T04:23:04;13.68;;;8.80;;
5696;SDS011;2873;50.966;7.210;2023-03-01T04:28:08;13.35;;;8.90;;
5696;SDS011;2873;50.966;7.210;2023-03-01T04:30:34;13.07;;;8.50;;
5696;SDS011;2873;50.966;7.210;2023-03-01T04:33:08;12.65;;;8.63;;
5696;SDS011;2873;50.966;7.210;2023-03-01T04:35:35;13.87;;;8.90;;
5696;SDS011;2873;50.966;7.210;2023-03-01T04:38:01;14.27;;;9.30;;
5696;SDS011;2873;50.966;7.210;2023-03-01T04:40:27;12.57;;;9.00;;
5696;SDS011;2873;50.966;7.210;2023-03-01T04:42:52;14.07;;;9.07;;
5696;SDS011;2873;50.966;7.210;2023-03-01T04:45:18;14.93;;;9.43;;
5696;SDS011;2873;50.966;7.210;2023-03-01T04:47:44;14.73;;;8.88;;
5696;SDS011;2873;50.966;7.210;2023-03-01T04:50:12;16.37;;;9.60;;
5696;SDS011;2873;50.966;7.210;2023-03-01T04:52:44;13.60;;;8.87;;
5696;SDS011;2873;50.966;7.210;2023-03-01T04:55:10;13.18;;;9.23;;
5696;SDS011;2873;50.966;7.210;2023-03-01T04:57:36;13.50;;;9.07;;
5696;SDS011;2873;50.966;7.210;2023-03-01T05:00:02;13.65;;;9.00;;
5696;SDS011;2873;50.966;7.210;2023-03-01T05:05:24;15.07;;;8.88;;
5696;SDS011;2873;50.966;7.210;2023-03-01T05:07:52;11.98;;;9.20;;
5696;SDS011;2873;50.966;7.210;2023-03-01T05:10:19;13.30;;;8.60;;
5696;SDS011;2873;50.966;7.210;2023-03-01T05:12:45;12.80;;;9.15;;
5696;SDS011;2873;50.966;7.210;2023-03-01T05:15:11;12.93;;;8.90;;
5696;SDS011;2873;50.966;7.210;2023-03-01T05:17:37;12.37;;;8.77;;
5696;SDS011;2873;50.966;7.210;2023-03-01T05:20:02;12.75;;;8.63;;
5696;SDS011;2873;50.966;7.210;2023-03-01T05:22:33;13.70;;;9.20;;
5696;SDS011;2873;50.966;7.210;2023-03-01T05:24:58;14.63;;;8.90;;
5696;SDS011;2873;50.966;7.210;2023-03-01T05:27:24;14.38;;;9.00;;
5696;SDS011;2873;50.966;7.210;2023-03-01T05:29:49;14.47;;;9.40;;
5696;SDS011;2873;50.966;7.210;2023-03-01T05:32:15;11.15;;;8.07;;
5696;SDS011;2873;50.966;7.210;2023-03-01T05:34:41;13.85;;;8.98;;
5696;SDS011;2873;50.966;7.210;2023-03-01T05:37:07;13.45;;;9.05;;
5696;SDS011;2873;50.966;7.210;2023-03-01T05:39:33;13.13;;;9.32;;
5696;SDS011;2873;50.966;7.210;2023-03-01T05:41:59;14.40;;;9.18;;
5696;SDS011;2873;50.966;7.210;2023-03-01T05:44:26;12.88;;;9.05;;
5696;SDS011;2873;50.966;7.210;2023-03-01T05:46:53;14.70;;;9.38;;
5696;SDS011;2873;50.966;7.210;2023-03-01T05:49:19;14.47;;;9.63;;
5696;SDS011;2873;50.966;7.210;2023-03-01T05:51:48;14.40;;;9.60;;
5696;SDS011;2873;50.966;7.210;2023-03-01T05:54:15;15.33;;;10.07;;
5696;SDS011;2873;50.966;7.210;2023-03-01T05:56:41;13.70;;;9.95;;
5696;SDS011;2873;50.966;7.210;2023-03-01T05:59:08;15.65;;;9.80;;
5696;SDS011;2873;50.966;7.210;2023-03-01T06:01:34;15.40;;;9.70;;
5696;SDS011;2873;50.966;7.210;2023-03-01T06:04:01;13.43;;;8.90;;
5696;SDS011;2873;50.966;7.210;2023-03-01T06:06:27;13.40;;;9.30;;
5696;SDS011;2873;50.966;7.210;2023-03-01T06:08:53;13.37;;;8.77;;
5696;SDS011;2873;50.966;7.210;2023-03-01T06:11:19;17.03;;;10.30;;
5696;SDS011;2873;50.966;7.210;2023-03-01T06:13:45;15.50;;;9.65;;
5696;SDS011;2873;50.966;7.210;2023-03-01T06:16:11;15.77;;;9.90;;
5696;SDS011;2873;50.966;7.210;2023-03-01T06:18:38;14.30;;;9.50;;
5696;SDS011;2873;50.966;7.210;2023-03-01T06:21:04;14.47;;;9.90;;
5696;SDS011;2873;50.966;7.210;2023-03-01T06:23:31;16.55;;;9.52;;
5696;SDS011;2873;50.966;7.210;2023-03-01T06:25:57;13.23;;;9.52;;
5696;SDS011;2873;50.966;7.210;2023-03-01T06:28:22;13.50;;;10.10;;
5696;SDS011;2873;50.966;7.210;2023-03-01T06:30:49;13.00;;;9.13;;
5696;SDS011;2873;50.966;7.210;2023-03-01T06:33:16;15.50;;;9.87;;
5696;SDS011;2873;50.966;7.210;2023-03-01T06:35:44;13.35;;;9.50;;
5696;SDS011;2873;50.966;7.210;2023-03-01T06:38:13;14.30;;;10.27;;
5696;SDS011;2873;50.966;7.210;2023-03-01T06:40:40;16.95;;;10.20;;
5696;SDS011;2873;50.966;7.210;2023-03-01T06:43:05;14.27;;;9.63;;
5696;SDS011;2873;50.966;7.210;2023-03-01T06:45:32;15.80;;;9.55;;
5696;SDS011;2873;50.966;7.210;2023-03-01T06:48:05;13.95;;;9.55;;
5696;SDS011;2873;50.966;7.210;2023-03-01T06:50:31;15.25;;;9.52;;
5696;SDS011;2873;50.966;7.210;2023-03-01T06:52:57;17.02;;;10.70;;
5696;SDS011;2873;50.966;7.210;2023-03-01T06:55:23;13.90;;;10.13;;
5696;SDS011;2873;50.966;7.210;2023-03-01T06:57:53;16.70;;;10.20;;
5696;SDS011;2873;50.966;7.210;2023-03-01T07:00:23;17.65;;;10.35;;
5696;SDS011;2873;50.966;7.210;2023-03-01T07:02:50;13.20;;;9.57;;
5696;SDS011;2873;50.966;7.210;2023-03-01T07:05:15;16.80;;;11.07;;
5696;SDS011;2873;50.966;7.210;2023-03-01T07:07:42;14.50;;;10.10;;
5696;SDS011;2873;50.966;7.210;2023-03-01T07:10:07;19.50;;;10.85;;
5696;SDS011;2873;50.966;7.210;2023-03-01T07:12:34;12.68;;;9.40;;
5696;SDS011;2873;50.966;7.210;2023-03-01T07:14:59;15.98;;;10.25;;
5696;SDS011;2873;50.966;7.210;2023-03-01T07:17:27;18.08;;;11.13;;
5696;SDS011;2873;50.966;7.210;2023-03-01T07:19:52;17.00;;;10.30;;
5696;SDS011;2873;50.966;7.210;2023-03-01T07:22:18;16.10;;;10.40;;
5696;SDS011;2873;50.966;7.210;2023-03-01T07:24:43;18.90;;;11.20;;
5696;SDS011;2873;50.966;7.210;2023-03-01T07:27:09;19.35;;;12.32;;
5696;SDS011;2873;50.966;7.210;2023-03-01T07:29:35;23.30;;;13.60;;
5696;SDS011;2873;50.966;7.210;2023-03-01T07:32:03;17.70;;;10.80;;
5696;SDS011;2873;50.966;7.210;2023-03-01T07:34:30;18.95;;;11.10;;
5696;SDS011;2873;50.966;7.210;2023-03-01T07:36:55;14.43;;;9.80;;
5696;SDS011;2873;50.966;7.210;2023-03-01T07:39:21;15.53;;;10.60;;
5696;SDS011;2873;50.966;7.210;2023-03-01T07:41:48;16.30;;;10.50;;
5696;SDS011;2873;50.966;7.210;2023-03-01T07:44:14;17.42;;;10.18;;
5696;SDS011;2873;50.966;7.210;2023-03-01T07:46:40;15.00;;;10.40;;
5696;SDS011;2873;50.966;7.210;2023-03-01T07:49:06;19.40;;;11.87;;
5696;SDS011;2873;50.966;7.210;2023-03-01T07:51:31;18.55;;;12.57;;
5696;SDS011;2873;50.966;7.210;2023-03-01T07:53:57;15.57;;;11.32;;
5696;SDS011;2873;50.966;7.210;2023-03-01T07:56:22;18.73;;;11.13;;
5696;SDS011;2873;50.966;7.210;2023-03-01T07:58:48;18.90;;;11.52;;
5696;SDS011;2873;50.966;7.210;2023-03-01T08:01:15;20.02;;;10.82;;
5696;SDS011;2873;50.966;7.210;2023-03-01T08:03:42;16.10;;;10.32;;
5696;SDS011;2873;50.966;7.210;2023-03-01T08:06:09;15.50;;;11.05;;
5696;SDS011;2873;50.966;7.210;2023-03-01T08:08:35;18.58;;;10.90;;
5696;SDS011;2873;50.966;7.210;2023-03-01T08:11:03;16.53;;;10.70;;
5696;SDS011;2873;50.966;7.210;2023-03-01T08:13:29;15.98;;;10.90;;
5696;SDS011;2873;50.966;7.210;2023-03-01T08:16:07;17.02;;;11.05;;
5696;SDS011;2873;50.966;7.210;2023-03-01T08:18:34;16.23;;;11.05;;
5696;SDS011;2873;50.966;7.210;2023-03-01T08:21:07;16.10;;;10.80;;
5696;SDS011;2873;50.966;7.210;2023-03-01T08:23:35;15.93;;;11.27;;
5696;SDS011;2873;50.966;7.210;2023-03-01T08:26:04;17.90;;;10.60;;
5696;SDS011;2873;50.966;7.210;2023-03-01T08:28:32;15.88;;;9.98;;
5696;SDS011;2873;50.966;7.210;2023-03-01T08:30:58;13.55;;;9.45;;
5696;SDS011;2873;50.966;7.210;2023-03-01T08:33:23;15.93;;;9.80;;
5696;SDS011;2873;50.966;7.210;2023-03-01T08:35:49;14.88;;;10.57;;
5696;SDS011;2873;50.966;7.210;2023-03-01T08:38:14;16.40;;;9.33;;
5696;SDS011;2873;50.966;7.210;2023-03-01T08:40:40;13.10;;;10.43;;
5696;SDS011;2873;50.966;7.210;2023-03-01T08:43:05;15.93;;;9.60;;
5696;SDS011;2873;50.966;7.210;2023-03-01T08:45:31;13.40;;;9.33;;
5696;SDS011;2873;50.966;7.210;2023-03-01T08:47:56;16.20;;;9.73;;
5696;SDS011;2873;50.966;7.210;2023-03-01T08:50:22;14.77;;;9.60;;
5696;SDS011;2873;50.966;7.210;2023-03-01T08:52:49;14.65;;;9.32;;
5696;SDS011;2873;50.966;7.210;2023-03-01T08:55:15;14.40;;;8.88;;
5696;SDS011;2873;50.966;7.210;2023-03-01T08:57:42;16.58;;;10.40;;
5696;SDS011;2873;50.966;7.210;2023-03-01T09:00:09;14.05;;;10.55;;
5696;SDS011;2873;50.966;7.210;2023-03-01T09:02:36;13.85;;;10.10;;
5696;SDS011;2873;50.966;7.210;2023-03-01T09:05:02;14.85;;;9.90;;
5696;SDS011;2873;50.966;7.210;2023-03-01T09:07:27;16.93;;;10.33;;
5696;SDS011;2873;50.966;7.210;2023-03-01T09:09:53;16.57;;;10.33;;
5696;SDS011;2873;50.966;7.210;2023-03-01T09:12:20;15.43;;;10.40;;
5696;SDS011;2873;50.966;7.210;2023-03-01T09:14:45;13.83;;;9.60;;
5696;SDS011;2873;50.966;7.210;2023-03-01T09:17:11;13.77;;;10.15;;
5696;SDS011;2873;50.966;7.210;2023-03-01T09:19:36;14.00;;;9.70;;
5696;SDS011;2873;50.966;7.210;2023-03-01T09:22:02;16.73;;;11.00;;
5696;SDS011;2873;50.966;7.210;2023-03-01T09:24:29;15.37;;;10.40;;
5696;SDS011;2873;50.966;7.210;2023-03-01T09:26:54;14.53;;;10.53;;
5696;SDS011;2873;50.966;7.210;2023-03-01T09:29:21;16.97;;;12.00;;
5696;SDS011;2873;50.966;7.210;2023-03-01T09:31:46;15.05;;;10.80;;
5696;SDS011;2873;50.966;7.210;2023-03-01T09:34:12;14.13;;;10.77;;
5696;SDS011;2873;50.966;7.210;2023-03-01T09:36:40;14.30;;;10.80;;
5696;SDS011;2873;50.966;7.210;2023-03-01T09:39:06;16.17;;;11.83;;
5696;SDS011;2873;50.966;7.210;2023-03-01T09:46:58;15.73;;;11.25;;
5696;SDS011;2873;50.966;7.210;2023-03-01T09:49:25;14.68;;;11.20;;
5696;SDS011;2873;50.966;7.210;2023-03-01T09:51:56;15.02;;;11.93;;
5696;SDS011;2873;50.966;7.210;2023-03-01T09:54:31;15.85;;;12.82;;
5696;SDS011;2873;50.966;7.210;2023-03-01T09:56:59;14.00;;;11.55;;
5696;SDS011;2873;50.966;7.210;2023-03-01T10:10:28;13.70;;;10.13;;
5696;SDS011;2873;50.966;7.210;2023-03-01T10:13:00;13.23;;;10.82;;
5696;SDS011;2873;50.966;7.210;2023-03-01T10:15:46;14.82;;;11.13;;
5696;SDS011;2873;50.966;7.210;2023-03-01T10:18:25;14.68;;;9.88;;
5696;SDS011;2873;50.966;7.210;2023-03-01T10:21:03;11.43;;;9.73;;
5696;SDS011;2873;50.966;7.210;2023-03-01T10:23:40;12.05;;;9.70;;
5696;SDS011;2873;50.966;7.210;2023-03-01T10:29:04;13.75;;;11.32;;
5696;SDS011;2873;50.966;7.210;2023-03-01T10:31:40;15.77;;;10.10;;
5696;SDS011;2873;50.966;7.210;2023-03-01T10:34:30;12.05;;;10.00;;
5696;SDS011;2873;50.966;7.210;2023-03-01T10:37:09;11.80;;;10.13;;
5696;SDS011;2873;50.966;7.210;2023-03-01T10:42:26;14.88;;;10.48;;
5696;SDS011;2873;50.966;7.210;2023-03-01T10:44:55;13.02;;;9.70;;
5696;SDS011;2873;50.966;7.210;2023-03-01T10:47:22;16.70;;;9.93;;
5696;SDS011;2873;50.966;7.210;2023-03-01T10:52:19;11.57;;;10.32;;
5696;SDS011;2873;50.966;7.210;2023-03-01T10:54:53;12.40;;;10.20;;
5696;SDS011;2873;50.966;7.210;2023-03-01T10:57:24;12.50;;;9.33;;
5696;SDS011;2873;50.966;7.210;2023-03-01T11:00:22;16.07;;;10.10;;
5696;SDS011;2873;50.966;7.210;2023-03-01T11:05:25;12.18;;;9.30;;
5696;SDS011;2873;50.966;7.210;2023-03-01T11:10:23;11.60;;;10.27;;
5696;SDS011;2873;50.966;7.210;2023-03-01T11:13:07;11.90;;;9.73;;
5696;SDS011;2873;50.966;7.210;2023-03-01T11:15:39;11.27;;;8.83;;
5696;SDS011;2873;50.966;7.210;2023-03-01T11:18:05;10.27;;;8.50;;
5696;SDS011;2873;50.966;7.210;2023-03-01T11:20:46;9.20;;;8.30;;
5696;SDS011;2873;50.966;7.210;2023-03-01T11:23:15;10.48;;;9.00;;
5696;SDS011;2873;50.966;7.210;2023-03-01T11:25:43;11.10;;;8.48;;
5696;SDS011;2873;50.966;7.210;2023-03-01T11:28:23;9.93;;;8.93;;
5696;SDS011;2873;50.966;7.210;2023-03-01T11:38:40;10.70;;;9.60;;
5696;SDS011;2873;50.966;7.210;2023-03-01T11:41:16;9.95;;;8.60;;
5696;SDS011;2873;50.966;7.210;2023-03-01T11:54:34;10.52;;;8.93;;
5696;SDS011;2873;50.966;7.210;2023-03-01T11:57:37;9.65;;;8.63;;
5696;SDS011;2873;50.966;7.210;2023-03-01T12:03:15;8.80;;;8.00;;
5696;SDS011;2873;50.966;7.210;2023-03-01T12:06:11;9.30;;;8.30;;
5696;SDS011;2873;50.966;7.210;2023-03-01T12:11:41;8.80;;;7.90;;
5696;SDS011;2873;50.966;7.210;2023-03-01T12:38:49;8.32;;;7.43;;
5696;SDS011;2873;50.966;7.210;2023-03-01T12:41:28;8.20;;;7.40;;
5696;SDS011;2873;50.966;7.210;2023-03-01T12:44:15;8.40;;;7.47;;
5696;SDS011;2873;50.966;7.210;2023-03-01T12:49:31;8.20;;;7.40;;
5696;SDS011;2873;50.966;7.210;2023-03-01T12:52:10;7.45;;;6.75;;
5696;SDS011;2873;50.966;7.210;2023-03-01T12:54:57;13.18;;;7.15;;
5696;SDS011;2873;50.966;7.210;2023-03-01T12:57:31;8.25;;;7.20;;
5696;SDS011;2873;50.966;7.210;2023-03-01T13:03:15;7.50;;;6.80;;
5696;SDS011;2873;50.966;7.210;2023-03-01T13:11:31;7.47;;;6.22;;
5696;SDS011;2873;50.966;7.210;2023-03-01T13:14:34;7.20;;;6.50;;
5696;SDS011;2873;50.966;7.210;2023-03-01T13:16:44;8.37;;;6.70;;
5696;SDS011;2873;50.966;7.210;2023-03-01T13:21:50;7.33;;;6.63;;
5696;SDS011;2873;50.966;7.210;2023-03-01T13:24:26;9.80;;;7.55;;
5696;SDS011;2873;50.966;7.210;2023-03-01T13:29:49;8.70;;;7.80;;
5696;SDS011;2873;50.966;7.210;2023-03-01T13:32:19;8.32;;;7.47;;
5696;SDS011;2873;50.966;7.210;2023-03-01T13:34:49;9.77;;;7.40;;
5696;SDS011;2873;50.966;7.210;2023-03-01T13:37:23;9.90;;;8.10;;
5696;SDS011;2873;50.966;7.210;2023-03-01T13:39:51;11.15;;;8.90;;
5696;SDS011;2873;50.966;7.210;2023-03-01T13:42:34;8.50;;;7.60;;
5696;SDS011;2873;50.966;7.210;2023-03-01T13:45:05;7.90;;;7.20;;
5696;SDS011;2873;50.966;7.210;2023-03-01T13:47:54;8.10;;;7.30;;
5696;SDS011;2873;50.966;7.210;2023-03-01T13:50:27;8.02;;;7.30;;
5696;SDS011;2873;50.966;7.210;2023-03-01T13:52:59;9.00;;;7.50;;
5696;SDS011;2873;50.966;7.210;2023-03-01T14:03:25;8.05;;;7.35;;
5696;SDS011;2873;50.966;7.210;2023-03-01T14:08:33;8.27;;;7.20;;
5696;SDS011;2873;50.966;7.210;2023-03-01T14:19:33;8.20;;;6.53;;
5696;SDS011;2873;50.966;7.210;2023-03-01T14:24:48;13.35;;;7.50;;
5696;SDS011;2873;50.966;7.210;2023-03-01T14:27:21;9.73;;;7.93;;
5696;SDS011;2873;50.966;7.210;2023-03-01T14:30:02;9.65;;;7.90;;
5696;SDS011;2873;50.966;7.210;2023-03-01T14:32:35;12.52;;;8.38;;
5696;SDS011;2873;50.966;7.210;2023-03-01T14:35:01;13.57;;;8.27;;
5696;SDS011;2873;50.966;7.210;2023-03-01T14:37:31;13.53;;;8.10;;
5696;SDS011;2873;50.966;7.210;2023-03-01T14:39:59;10.88;;;8.75;;
5696;SDS011;2873;50.966;7.210;2023-03-01T14:42:28;9.25;;;7.55;;
5696;SDS011;2873;50.966;7.210;2023-03-01T14:44:56;11.48;;;8.20;;
5696;SDS011;2873;50.966;7.210;2023-03-01T14:47:26;9.07;;;8.00;;
5696;SDS011;2873;50.966;7.210;2023-03-01T14:50:07;11.40;;;7.80;;
5696;SDS011;2873;50.966;7.210;2023-03-01T14:52:40;10.50;;;7.80;;
5696;SDS011;2873;50.966;7.210;2023-03-01T14:55:16;9.13;;;7.50;;
5696;SDS011;2873;50.966;7.210;2023-03-01T14:57:51;9.55;;;7.63;;
5696;SDS011;2873;50.966;7.210;2023-03-01T15:02:45;10.30;;;8.17;;
5696;SDS011;2873;50.966;7.210;2023-03-01T15:05:13;9.40;;;8.00;;
5696;SDS011;2873;50.966;7.210;2023-03-01T15:07:41;11.02;;;7.88;;
5696;SDS011;2873;50.966;7.210;2023-03-01T15:10:55;11.30;;;7.20;;
5696;SDS011;2873;50.966;7.210;2023-03-01T15:13:21;8.65;;;7.18;;
5696;SDS011;2873;50.966;7.210;2023-03-01T15:15:48;12.52;;;6.95;;
5696;SDS011;2873;50.966;7.210;2023-03-01T15:18:20;10.63;;;7.67;;
5696;SDS011;2873;50.966;7.210;2023-03-01T15:20:49;11.18;;;8.27;;
5696;SDS011;2873;50.966;7.210;2023-03-01T15:23:36;10.43;;;7.97;;
5696;SDS011;2873;50.966;7.210;2023-03-01T15:26:03;8.85;;;7.40;;
5696;SDS011;2873;50.966;7.210;2023-03-01T15:28:29;8.90;;;7.60;;
5696;SDS011;2873;50.966;7.210;2023-03-01T15:30:59;10.30;;;7.28;;
5696;SDS011;2873;50.966;7.210;2023-03-01T15:33:30;10.93;;;7.17;;
5696;SDS011;2873;50.966;7.210;2023-03-01T15:36:02;11.27;;;7.50;;
5696;SDS011;2873;50.966;7.210;2023-03-01T15:38:52;9.63;;;7.10;;
5696;SDS011;2873;50.966;7.210;2023-03-01T15:44:13;12.15;;;7.75;;
5696;SDS011;2873;50.966;7.210;2023-03-01T15:46:44;10.63;;;7.63;;
5696;SDS011;2873;50.966;7.210;2023-03-01T15:49:22;14.82;;;7.53;;
5696;SDS011;2873;50.966;7.210;2023-03-01T15:52:00;9.90;;;7.13;;
5696;SDS011;2873;50.966;7.210;2023-03-01T15:54:26;8.83;;;7.13;;
5696;SDS011;2873;50.966;7.210;2023-03-01T15:56:52;9.68;;;6.90;;
5696;SDS011;2873;50.966;7.210;2023-03-01T15:59:18;10.55;;;6.95;;
5696;SDS011;2873;50.966;7.210;2023-03-01T16:01:44;8.70;;;7.10;;
5696;SDS011;2873;50.966;7.210;2023-03-01T16:04:11;11.32;;;6.85;;
5696;SDS011;2873;50.966;7.210;2023-03-01T16:06:52;10.43;;;6.65;;
5696;SDS011;2873;50.966;7.210;2023-03-01T16:09:22;10.50;;;6.63;;
5696;SDS011;2873;50.966;7.210;2023-03-01T16:11:49;8.20;;;6.28;;
5696;SDS011;2873;50.966;7.210;2023-03-01T16:14:16;8.57;;;6.40;;
5696;SDS011;2873;50.966;7.210;2023-03-01T16:16:42;8.77;;;6.57;;
5696;SDS011;2873;50.966;7.210;2023-03-01T16:19:07;9.63;;;6.67;;
5696;SDS011;2873;50.966;7.210;2023-03-01T16:21:33;9.15;;;7.20;;
5696;SDS011;2873;50.966;7.210;2023-03-01T16:23:59;15.00;;;7.00;;
5696;SDS011;2873;50.966;7.210;2023-03-01T16:26:25;11.77;;;7.00;;
5696;SDS011;2873;50.966;7.210;2023-03-01T16:28:53;8.85;;;6.25;;
5696;SDS011;2873;50.966;7.210;2023-03-01T16:31:20;10.07;;;6.90;;
5696;SDS011;2873;50.966;7.210;2023-03-01T16:33:46;11.23;;;6.72;;
5696;SDS011;2873;50.966;7.210;2023-03-01T16:36:15;9.70;;;6.80;;
5696;SDS011;2873;50.966;7.210;2023-03-01T16:38:43;11.83;;;6.80;;
5696;SDS011;2873;50.966;7.210;2023-03-01T16:41:11;9.02;;;6.88;;
5696;SDS011;2873;50.966;7.210;2023-03-01T16:43:42;10.40;;;6.50;;
5696;SDS011;2873;50.966;7.210;2023-03-01T16:46:11;9.48;;;6.90;;
5696;SDS011;2873;50.966;7.210;2023-03-01T16:48:55;9.25;;;7.30;;
5696;SDS011;2873;50.966;7.210;2023-03-01T16:51:21;9.10;;;7.07;;
5696;SDS011;2873;50.966;7.210;2023-03-01T16:53:47;9.82;;;6.30;;
5696;SDS011;2873;50.966;7.210;2023-03-01T16:56:14;9.20;;;7.00;;
5696;SDS011;2873;50.966;7.210;2023-03-01T16:58:41;9.38;;;6.80;;
5696;SDS011;2873;50.966;7.210;2023-03-01T17:01:10;9.55;;;6.10;;
5696;SDS011;2873;50.966;7.210;2023-03-01T17:03:38;8.90;;;6.60;;
5696;SDS011;2873;50.966;7.210;2023-03-01T17:06:05;11.63;;;6.40;;
5696;SDS011;2873;50.966;7.210;2023-03-01T17:08:33;8.97;;;6.10;;
5696;SDS011;2873;50.966;7.210;2023-03-01T17:11:02;8.82;;;6.30;;
5696;SDS011;2873;50.966;7.210;2023-03-01T17:13:36;8.38;;;6.45;;
5696;SDS011;2873;50.966;7.210;2023-03-01T17:16:07;9.75;;;6.78;;
5696;SDS011;2873;50.966;7.210;2023-03-01T17:18:35;9.15;;;6.30;;
5696;SDS011;2873;50.966;7.210;2023-03-01T17:21:01;7.80;;;6.25;;
5696;SDS011;2873;50.966;7.210;2023-03-01T17:23:28;9.18;;;6.30;;
5696;SDS011;2873;50.966;7.210;2023-03-01T17:25:54;9.17;;;6.40;;
5696;SDS011;2873;50.966;7.210;2023-03-01T17:28:20;9.38;;;6.15;;
5696;SDS011;2873;50.966;7.210;2023-03-01T17:30:47;8.53;;;6.30;;
5696;SDS011;2873;50.966;7.210;2023-03-01T17:33:13;9.30;;;6.45;;